LFBP/PUF METAR and TAF weather

Enter ICAO airport designator
Station Type Date Time Source
LFBP METAR 2021/03/01 04:00 UTC NOAA

LFBP 010400Z AUTO 10003KT CAVOK 03/02 Q1021 TEMPO 0500 FG VV///


Station Type Date Time Source
LFBP Decoded METAR 2021/03/01 04:00 UTC NOAA

Pau, France (LFBP) 43-23N 000-25W 185M
Feb 28, 2021 - 11:00 PM EST / 2021.03.01 0400 UTC
Wind: from the E (100 degrees) at 3 MPH (3 KT):0
Visibility: greater than 7 mile(s):0
Temperature: 37 F (3 C)
Dew Point: 35 F (2 C)
Relative Humidity: 93%
Pressure (altimeter): 30.15 in. Hg (1021 hPa)
ob: LFBP 010400Z AUTO 10003KT CAVOK 03/02 Q1021 TEMPO 0500 FG VV///
cycle: 4

Station Type Date Time Source
LFBP TAF 2021/02/28 18:21 UTC NOAA

TAF LFBP 281700Z 2818/0118 09010KT 9999 SCT030
BECMG 2818/2819 VRB03KT CAVOK
BECMG 0100/0102 4000 BR NSC PROB30
TEMPO 0104/0107 0300 FG VV///
BECMG 0107/0108 CAVOK

Example: see airport list